sensor_id;sensor_type;location;lat;lon;timestamp;P1;durP1;ratioP1;P2;durP2;ratioP2
44572;SDS011;31762;45.420;10.072;2024-01-11T00:03:35;18.83;;;16.73;;
44572;SDS011;31762;45.420;10.072;2024-01-11T00:08:37;16.88;;;14.38;;
44572;SDS011;31762;45.420;10.072;2024-01-11T00:13:40;17.70;;;15.82;;
44572;SDS011;31762;45.420;10.072;2024-01-11T00:18:42;17.20;;;14.52;;
44572;SDS011;31762;45.420;10.072;2024-01-11T00:23:44;16.80;;;15.20;;
44572;SDS011;31762;45.420;10.072;2024-01-11T00:28:46;16.85;;;15.07;;
44572;SDS011;31762;45.420;10.072;2024-01-11T00:33:48;19.95;;;15.35;;
44572;SDS011;31762;45.420;10.072;2024-01-11T00:38:51;16.38;;;14.68;;
44572;SDS011;31762;45.420;10.072;2024-01-11T00:43:53;17.27;;;15.63;;
44572;SDS011;31762;45.420;10.072;2024-01-11T00:48:55;17.58;;;15.77;;
44572;SDS011;31762;45.420;10.072;2024-01-11T00:53:58;16.67;;;14.05;;
44572;SDS011;31762;45.420;10.072;2024-01-11T00:59:00;16.58;;;14.90;;
44572;SDS011;31762;45.420;10.072;2024-01-11T01:04:02;18.77;;;15.50;;
44572;SDS011;31762;45.420;10.072;2024-01-11T01:09:05;16.83;;;15.00;;
44572;SDS011;31762;45.420;10.072;2024-01-11T01:14:07;17.38;;;15.48;;
44572;SDS011;31762;45.420;10.072;2024-01-11T01:19:09;17.40;;;15.02;;
44572;SDS011;31762;45.420;10.072;2024-01-11T01:24:11;16.80;;;15.02;;
44572;SDS011;31762;45.420;10.072;2024-01-11T01:29:14;17.02;;;15.13;;
44572;SDS011;31762;45.420;10.072;2024-01-11T01:34:16;16.48;;;13.52;;
44572;SDS011;31762;45.420;10.072;2024-01-11T01:39:18;18.63;;;15.05;;
44572;SDS011;31762;45.420;10.072;2024-01-11T01:44:20;16.17;;;14.45;;
44572;SDS011;31762;45.420;10.072;2024-01-11T01:49:23;15.73;;;14.13;;
44572;SDS011;31762;45.420;10.072;2024-01-11T01:54:25;17.45;;;15.65;;
44572;SDS011;31762;45.420;10.072;2024-01-11T01:59:28;16.80;;;15.02;;
44572;SDS011;31762;45.420;10.072;2024-01-11T02:04:31;18.58;;;16.90;;
44572;SDS011;31762;45.420;10.072;2024-01-11T02:09:34;16.45;;;14.73;;
44572;SDS011;31762;45.420;10.072;2024-01-11T02:14:37;18.00;;;16.25;;
44572;SDS011;31762;45.420;10.072;2024-01-11T02:19:39;16.40;;;14.70;;
44572;SDS011;31762;45.420;10.072;2024-01-11T02:24:42;17.40;;;14.90;;
44572;SDS011;31762;45.420;10.072;2024-01-11T02:29:44;15.68;;;14.00;;
44572;SDS011;31762;45.420;10.072;2024-01-11T02:34:46;17.02;;;15.23;;
44572;SDS011;31762;45.420;10.072;2024-01-11T02:39:49;17.42;;;15.52;;
44572;SDS011;31762;45.420;10.072;2024-01-11T02:44:51;14.50;;;13.07;;
44572;SDS011;31762;45.420;10.072;2024-01-11T02:49:53;17.05;;;15.38;;
44572;SDS011;31762;45.420;10.072;2024-01-11T02:54:55;17.35;;;15.55;;
44572;SDS011;31762;45.420;10.072;2024-01-11T02:59:58;18.67;;;15.57;;
44572;SDS011;31762;45.420;10.072;2024-01-11T03:05:00;17.55;;;15.95;;
44572;SDS011;31762;45.420;10.072;2024-01-11T03:10:02;16.52;;;14.88;;
44572;SDS011;31762;45.420;10.072;2024-01-11T03:15:05;16.40;;;14.23;;
44572;SDS011;31762;45.420;10.072;2024-01-11T03:20:07;17.48;;;14.68;;
44572;SDS011;31762;45.420;10.072;2024-01-11T03:25:10;17.27;;;15.27;;
44572;SDS011;31762;45.420;10.072;2024-01-11T03:30:12;16.20;;;14.38;;
44572;SDS011;31762;45.420;10.072;2024-01-11T03:35:14;16.08;;;14.50;;
44572;SDS011;31762;45.420;10.072;2024-01-11T03:40:17;16.92;;;15.20;;
44572;SDS011;31762;45.420;10.072;2024-01-11T03:45:19;16.25;;;14.57;;
44572;SDS011;31762;45.420;10.072;2024-01-11T03:50:21;17.70;;;16.00;;
44572;SDS011;31762;45.420;10.072;2024-01-11T03:55:23;18.00;;;16.10;;
44572;SDS011;31762;45.420;10.072;2024-01-11T04:00:26;22.13;;;16.67;;
44572;SDS011;31762;45.420;10.072;2024-01-11T04:05:28;16.52;;;14.77;;
44572;SDS011;31762;45.420;10.072;2024-01-11T04:10:30;17.23;;;15.10;;
44572;SDS011;31762;45.420;10.072;2024-01-11T04:15:32;16.50;;;14.80;;
44572;SDS011;31762;45.420;10.072;2024-01-11T04:20:35;16.15;;;14.45;;
44572;SDS011;31762;45.420;10.072;2024-01-11T04:25:37;17.08;;;14.88;;
44572;SDS011;31762;45.420;10.072;2024-01-11T04:30:39;16.38;;;14.68;;
44572;SDS011;31762;45.420;10.072;2024-01-11T04:35:42;19.65;;;17.75;;
44572;SDS011;31762;45.420;10.072;2024-01-11T04:40:44;18.58;;;15.55;;
44572;SDS011;31762;45.420;10.072;2024-01-11T04:45:46;18.35;;;15.32;;
44572;SDS011;31762;45.420;10.072;2024-01-11T04:50:48;18.13;;;14.68;;
44572;SDS011;31762;45.420;10.072;2024-01-11T04:55:51;17.75;;;15.77;;
44572;SDS011;31762;45.420;10.072;2024-01-11T05:00:53;17.48;;;15.77;;
44572;SDS011;31762;45.420;10.072;2024-01-11T05:05:55;17.05;;;15.35;;
44572;SDS011;31762;45.420;10.072;2024-01-11T05:10:57;16.40;;;14.55;;
44572;SDS011;31762;45.420;10.072;2024-01-11T05:16:00;17.17;;;14.43;;
44572;SDS011;31762;45.420;10.072;2024-01-11T05:21:03;16.65;;;14.85;;
44572;SDS011;31762;45.420;10.072;2024-01-11T05:26:05;20.00;;;14.77;;
44572;SDS011;31762;45.420;10.072;2024-01-11T05:31:09;15.82;;;14.30;;
44572;SDS011;31762;45.420;10.072;2024-01-11T05:36:11;15.73;;;14.15;;
44572;SDS011;31762;45.420;10.072;2024-01-11T05:41:13;16.35;;;14.60;;
44572;SDS011;31762;45.420;10.072;2024-01-11T05:46:16;18.42;;;16.63;;
44572;SDS011;31762;45.420;10.072;2024-01-11T05:51:18;16.92;;;14.95;;
44572;SDS011;31762;45.420;10.072;2024-01-11T05:56:20;17.40;;;15.60;;
44572;SDS011;31762;45.420;10.072;2024-01-11T06:01:23;19.55;;;15.02;;
44572;SDS011;31762;45.420;10.072;2024-01-11T06:06:25;16.95;;;15.15;;
44572;SDS011;31762;45.420;10.072;2024-01-11T06:11:27;18.77;;;16.88;;
44572;SDS011;31762;45.420;10.072;2024-01-11T06:16:30;16.98;;;15.27;;
44572;SDS011;31762;45.420;10.072;2024-01-11T06:21:32;17.58;;;15.73;;
44572;SDS011;31762;45.420;10.072;2024-01-11T06:26:34;16.83;;;15.18;;
44572;SDS011;31762;45.420;10.072;2024-01-11T06:31:36;16.98;;;14.80;;
44572;SDS011;31762;45.420;10.072;2024-01-11T06:36:38;16.85;;;14.38;;
44572;SDS011;31762;45.420;10.072;2024-01-11T06:41:40;17.50;;;15.35;;
44572;SDS011;31762;45.420;10.072;2024-01-11T06:46:43;16.98;;;14.52;;
44572;SDS011;31762;45.420;10.072;2024-01-11T06:51:45;18.15;;;15.90;;
44572;SDS011;31762;45.420;10.072;2024-01-11T06:56:47;17.05;;;15.18;;
44572;SDS011;31762;45.420;10.072;2024-01-11T07:01:49;18.35;;;16.05;;
44572;SDS011;31762;45.420;10.072;2024-01-11T07:06:52;20.58;;;18.58;;
44572;SDS011;31762;45.420;10.072;2024-01-11T07:11:54;17.35;;;15.68;;
44572;SDS011;31762;45.420;10.072;2024-01-11T07:16:56;16.98;;;14.98;;
44572;SDS011;31762;45.420;10.072;2024-01-11T07:21:58;19.88;;;16.75;;
44572;SDS011;31762;45.420;10.072;2024-01-11T07:27:01;19.63;;;16.63;;
44572;SDS011;31762;45.420;10.072;2024-01-11T07:32:03;18.60;;;16.73;;
44572;SDS011;31762;45.420;10.072;2024-01-11T07:37:06;17.73;;;15.88;;
44572;SDS011;31762;45.420;10.072;2024-01-11T07:42:08;18.60;;;15.65;;
44572;SDS011;31762;45.420;10.072;2024-01-11T07:47:10;18.42;;;16.15;;
44572;SDS011;31762;45.420;10.072;2024-01-11T07:52:12;21.55;;;17.05;;
44572;SDS011;31762;45.420;10.072;2024-01-11T07:57:15;20.77;;;17.63;;
44572;SDS011;31762;45.420;10.072;2024-01-11T08:02:17;21.70;;;18.13;;
44572;SDS011;31762;45.420;10.072;2024-01-11T08:07:20;19.63;;;17.63;;
44572;SDS011;31762;45.420;10.072;2024-01-11T08:12:22;21.83;;;17.27;;
44572;SDS011;31762;45.420;10.072;2024-01-11T08:17:24;21.42;;;17.98;;
44572;SDS011;31762;45.420;10.072;2024-01-11T08:22:26;22.20;;;19.38;;
44572;SDS011;31762;45.420;10.072;2024-01-11T08:27:29;22.70;;;20.58;;
44572;SDS011;31762;45.420;10.072;2024-01-11T08:32:31;23.95;;;19.60;;
44572;SDS011;31762;45.420;10.072;2024-01-11T08:37:33;19.23;;;17.15;;
44572;SDS011;31762;45.420;10.072;2024-01-11T08:42:35;20.98;;;17.67;;
44572;SDS011;31762;45.420;10.072;2024-01-11T08:47:38;21.27;;;19.15;;
44572;SDS011;31762;45.420;10.072;2024-01-11T08:52:40;20.95;;;18.85;;
44572;SDS011;31762;45.420;10.072;2024-01-11T08:57:43;20.58;;;18.38;;
44572;SDS011;31762;45.420;10.072;2024-01-11T09:02:45;19.00;;;17.08;;
44572;SDS011;31762;45.420;10.072;2024-01-11T09:07:47;20.65;;;18.58;;
44572;SDS011;31762;45.420;10.072;2024-01-11T09:12:53;21.60;;;19.42;;
44572;SDS011;31762;45.420;10.072;2024-01-11T09:17:55;20.70;;;18.58;;
44572;SDS011;31762;45.420;10.072;2024-01-11T09:22:58;21.25;;;19.10;;
44572;SDS011;31762;45.420;10.072;2024-01-11T09:28:00;20.77;;;18.67;;
44572;SDS011;31762;45.420;10.072;2024-01-11T09:33:02;23.20;;;20.98;;
44572;SDS011;31762;45.420;10.072;2024-01-11T09:38:05;23.65;;;21.50;;
44572;SDS011;31762;45.420;10.072;2024-01-11T09:43:07;21.58;;;19.38;;
44572;SDS011;31762;45.420;10.072;2024-01-11T09:48:11;21.08;;;18.77;;
44572;SDS011;31762;45.420;10.072;2024-01-11T09:53:14;21.00;;;17.63;;
44572;SDS011;31762;45.420;10.072;2024-01-11T09:58:18;22.02;;;19.85;;
44572;SDS011;31762;45.420;10.072;2024-01-11T10:03:22;21.58;;;19.52;;
44572;SDS011;31762;45.420;10.072;2024-01-11T10:08:25;20.92;;;18.70;;
44572;SDS011;31762;45.420;10.072;2024-01-11T10:13:28;21.30;;;19.10;;
44572;SDS011;31762;45.420;10.072;2024-01-11T10:18:31;23.75;;;21.60;;
44572;SDS011;31762;45.420;10.072;2024-01-11T10:23:33;20.23;;;18.30;;
44572;SDS011;31762;45.420;10.072;2024-01-11T10:28:36;21.55;;;18.83;;
44572;SDS011;31762;45.420;10.072;2024-01-11T10:33:38;18.98;;;17.08;;
44572;SDS011;31762;45.420;10.072;2024-01-11T10:38:40;22.05;;;19.73;;
44572;SDS011;31762;45.420;10.072;2024-01-11T10:43:43;20.08;;;18.10;;
44572;SDS011;31762;45.420;10.072;2024-01-11T10:48:46;18.90;;;17.05;;
44572;SDS011;31762;45.420;10.072;2024-01-11T10:53:49;21.33;;;18.63;;
44572;SDS011;31762;45.420;10.072;2024-01-11T10:58:52;19.27;;;17.25;;
44572;SDS011;31762;45.420;10.072;2024-01-11T11:03:55;21.67;;;19.75;;
44572;SDS011;31762;45.420;10.072;2024-01-11T11:08:57;21.02;;;18.45;;
44572;SDS011;31762;45.420;10.072;2024-01-11T11:14:00;21.38;;;19.30;;
44572;SDS011;31762;45.420;10.072;2024-01-11T11:19:03;24.63;;;22.33;;
44572;SDS011;31762;45.420;10.072;2024-01-11T11:24:05;22.05;;;19.80;;
44572;SDS011;31762;45.420;10.072;2024-01-11T11:29:08;21.67;;;19.48;;
44572;SDS011;31762;45.420;10.072;2024-01-11T11:34:13;20.67;;;18.58;;
44572;SDS011;31762;45.420;10.072;2024-01-11T11:39:16;21.15;;;18.92;;
44572;SDS011;31762;45.420;10.072;2024-01-11T11:44:18;22.02;;;19.70;;
44572;SDS011;31762;45.420;10.072;2024-01-11T11:49:21;24.17;;;20.70;;
44572;SDS011;31762;45.420;10.072;2024-01-11T11:54:43;21.20;;;19.00;;
44572;SDS011;31762;45.420;10.072;2024-01-11T11:59:46;23.85;;;21.65;;
44572;SDS011;31762;45.420;10.072;2024-01-11T12:04:48;22.30;;;19.60;;
44572;SDS011;31762;45.420;10.072;2024-01-11T12:09:50;25.88;;;23.40;;
44572;SDS011;31762;45.420;10.072;2024-01-11T12:14:53;21.00;;;18.75;;
44572;SDS011;31762;45.420;10.072;2024-01-11T12:19:55;21.55;;;18.60;;
44572;SDS011;31762;45.420;10.072;2024-01-11T12:24:58;22.13;;;19.17;;
44572;SDS011;31762;45.420;10.072;2024-01-11T12:30:00;23.27;;;20.88;;
44572;SDS011;31762;45.420;10.072;2024-01-11T12:35:03;22.80;;;20.52;;
44572;SDS011;31762;45.420;10.072;2024-01-11T12:40:05;22.88;;;19.77;;
44572;SDS011;31762;45.420;10.072;2024-01-11T12:45:08;22.45;;;20.02;;
44572;SDS011;31762;45.420;10.072;2024-01-11T12:50:11;22.05;;;19.73;;
44572;SDS011;31762;45.420;10.072;2024-01-11T12:55:20;23.48;;;20.92;;
44572;SDS011;31762;45.420;10.072;2024-01-11T13:00:22;21.13;;;18.58;;
44572;SDS011;31762;45.420;10.072;2024-01-11T13:05:25;21.15;;;18.95;;
44572;SDS011;31762;45.420;10.072;2024-01-11T13:10:27;21.48;;;19.30;;
44572;SDS011;31762;45.420;10.072;2024-01-11T13:15:30;21.48;;;19.27;;
44572;SDS011;31762;45.420;10.072;2024-01-11T13:20:32;22.77;;;20.45;;
44572;SDS011;31762;45.420;10.072;2024-01-11T13:25:34;20.98;;;18.77;;
44572;SDS011;31762;45.420;10.072;2024-01-11T13:30:40;21.55;;;19.40;;
44572;SDS011;31762;45.420;10.072;2024-01-11T13:35:43;21.92;;;19.63;;
44572;SDS011;31762;45.420;10.072;2024-01-11T13:40:45;21.77;;;19.60;;
44572;SDS011;31762;45.420;10.072;2024-01-11T13:45:48;19.98;;;17.88;;
44572;SDS011;31762;45.420;10.072;2024-01-11T13:50:50;20.17;;;18.13;;
44572;SDS011;31762;45.420;10.072;2024-01-11T13:55:53;23.75;;;21.65;;
44572;SDS011;31762;45.420;10.072;2024-01-11T14:00:55;21.73;;;19.33;;
44572;SDS011;31762;45.420;10.072;2024-01-11T14:05:59;19.73;;;17.67;;
44572;SDS011;31762;45.420;10.072;2024-01-11T14:11:02;21.67;;;19.27;;
44572;SDS011;31762;45.420;10.072;2024-01-11T14:16:04;20.67;;;18.58;;
44572;SDS011;31762;45.420;10.072;2024-01-11T14:21:07;22.05;;;18.98;;
44572;SDS011;31762;45.420;10.072;2024-01-11T14:26:09;23.23;;;19.63;;
44572;SDS011;31762;45.420;10.072;2024-01-11T14:31:11;20.70;;;18.27;;
44572;SDS011;31762;45.420;10.072;2024-01-11T14:36:13;20.35;;;18.42;;
44572;SDS011;31762;45.420;10.072;2024-01-11T14:41:16;21.90;;;19.83;;
44572;SDS011;31762;45.420;10.072;2024-01-11T14:46:18;20.67;;;18.70;;
44572;SDS011;31762;45.420;10.072;2024-01-11T14:51:21;22.38;;;20.27;;
44572;SDS011;31762;45.420;10.072;2024-01-11T14:56:23;19.15;;;17.23;;
44572;SDS011;31762;45.420;10.072;2024-01-11T15:01:25;20.50;;;18.35;;
44572;SDS011;31762;45.420;10.072;2024-01-11T15:06:28;19.67;;;17.70;;
44572;SDS011;31762;45.420;10.072;2024-01-11T15:11:30;22.55;;;20.17;;
44572;SDS011;31762;45.420;10.072;2024-01-11T15:16:32;20.52;;;18.40;;
44572;SDS011;31762;45.420;10.072;2024-01-11T15:21:34;23.00;;;20.80;;
44572;SDS011;31762;45.420;10.072;2024-01-11T15:26:40;20.30;;;18.08;;
44572;SDS011;31762;45.420;10.072;2024-01-11T15:31:43;21.13;;;18.42;;
44572;SDS011;31762;45.420;10.072;2024-01-11T15:36:45;20.90;;;18.77;;
44572;SDS011;31762;45.420;10.072;2024-01-11T15:41:48;20.60;;;18.50;;
44572;SDS011;31762;45.420;10.072;2024-01-11T15:46:50;22.95;;;19.73;;
44572;SDS011;31762;45.420;10.072;2024-01-11T15:51:53;21.17;;;19.00;;
44572;SDS011;31762;45.420;10.072;2024-01-11T15:56:56;20.52;;;17.67;;
44572;SDS011;31762;45.420;10.072;2024-01-11T16:01:58;21.55;;;19.40;;
44572;SDS011;31762;45.420;10.072;2024-01-11T16:07:07;23.77;;;21.63;;
44572;SDS011;31762;45.420;10.072;2024-01-11T16:12:10;24.40;;;22.10;;
44572;SDS011;31762;45.420;10.072;2024-01-11T16:17:12;21.67;;;19.55;;
44572;SDS011;31762;45.420;10.072;2024-01-11T16:22:14;21.88;;;18.10;;
44572;SDS011;31762;45.420;10.072;2024-01-11T16:27:16;20.70;;;18.50;;
44572;SDS011;31762;45.420;10.072;2024-01-11T16:32:18;21.15;;;19.05;;
44572;SDS011;31762;45.420;10.072;2024-01-11T16:37:21;20.35;;;18.25;;
44572;SDS011;31762;45.420;10.072;2024-01-11T16:42:23;21.67;;;18.85;;
44572;SDS011;31762;45.420;10.072;2024-01-11T16:47:26;22.88;;;20.92;;
44572;SDS011;31762;45.420;10.072;2024-01-11T16:52:28;21.15;;;18.50;;
44572;SDS011;31762;45.420;10.072;2024-01-11T16:57:31;21.80;;;19.60;;
44572;SDS011;31762;45.420;10.072;2024-01-11T17:02:34;25.67;;;22.98;;
44572;SDS011;31762;45.420;10.072;2024-01-11T17:07:38;21.03;;;18.87;;
44572;SDS011;31762;45.420;10.072;2024-01-11T17:12:40;25.83;;;23.33;;
44572;SDS011;31762;45.420;10.072;2024-01-11T17:17:42;25.77;;;23.17;;
44572;SDS011;31762;45.420;10.072;2024-01-11T17:22:45;24.50;;;21.90;;
44572;SDS011;31762;45.420;10.072;2024-01-11T17:27:47;27.90;;;25.20;;
44572;SDS011;31762;45.420;10.072;2024-01-11T17:32:49;24.35;;;21.73;;
44572;SDS011;31762;45.420;10.072;2024-01-11T17:37:52;26.38;;;23.65;;
44572;SDS011;31762;45.420;10.072;2024-01-11T17:42:54;25.25;;;22.55;;
44572;SDS011;31762;45.420;10.072;2024-01-11T17:47:57;23.98;;;21.58;;
44572;SDS011;31762;45.420;10.072;2024-01-11T17:52:59;23.48;;;20.98;;
44572;SDS011;31762;45.420;10.072;2024-01-11T17:58:02;25.30;;;21.17;;
44572;SDS011;31762;45.420;10.072;2024-01-11T18:03:04;27.60;;;24.88;;
44572;SDS011;31762;45.420;10.072;2024-01-11T18:08:07;26.15;;;23.33;;
44572;SDS011;31762;45.420;10.072;2024-01-11T18:13:09;23.30;;;20.80;;
44572;SDS011;31762;45.420;10.072;2024-01-11T18:18:12;26.15;;;23.45;;
44572;SDS011;31762;45.420;10.072;2024-01-11T18:23:14;27.92;;;24.90;;
44572;SDS011;31762;45.420;10.072;2024-01-11T18:28:17;26.70;;;23.92;;
44572;SDS011;31762;45.420;10.072;2024-01-11T18:33:19;29.65;;;26.95;;
44572;SDS011;31762;45.420;10.072;2024-01-11T18:38:22;27.48;;;24.40;;
44572;SDS011;31762;45.420;10.072;2024-01-11T18:43:25;28.27;;;25.67;;
44572;SDS011;31762;45.420;10.072;2024-01-11T18:48:27;28.02;;;24.10;;
44572;SDS011;31762;45.420;10.072;2024-01-11T18:53:29;27.30;;;23.73;;
44572;SDS011;31762;45.420;10.072;2024-01-11T18:58:33;25.08;;;22.05;;
44572;SDS011;31762;45.420;10.072;2024-01-11T19:03:39;28.55;;;25.67;;
44572;SDS011;31762;45.420;10.072;2024-01-11T19:08:41;28.38;;;25.38;;
44572;SDS011;31762;45.420;10.072;2024-01-11T19:13:43;28.13;;;22.42;;
44572;SDS011;31762;45.420;10.072;2024-01-11T19:18:46;28.60;;;23.27;;
44572;SDS011;31762;45.420;10.072;2024-01-11T19:23:52;33.47;;;25.65;;
44572;SDS011;31762;45.420;10.072;2024-01-11T19:28:55;28.60;;;25.83;;
44572;SDS011;31762;45.420;10.072;2024-01-11T19:33:57;26.70;;;23.05;;
44572;SDS011;31762;45.420;10.072;2024-01-11T19:39:00;26.25;;;23.55;;
44572;SDS011;31762;45.420;10.072;2024-01-11T19:44:02;27.00;;;24.20;;
44572;SDS011;31762;45.420;10.072;2024-01-11T19:49:04;30.17;;;25.40;;
44572;SDS011;31762;45.420;10.072;2024-01-11T19:54:07;32.85;;;29.73;;
44572;SDS011;31762;45.420;10.072;2024-01-11T19:59:09;33.83;;;30.40;;
44572;SDS011;31762;45.420;10.072;2024-01-11T20:04:11;29.05;;;26.05;;
44572;SDS011;31762;45.420;10.072;2024-01-11T20:09:13;33.25;;;27.95;;
44572;SDS011;31762;45.420;10.072;2024-01-11T20:14:16;33.58;;;30.08;;
44572;SDS011;31762;45.420;10.072;2024-01-11T20:19:18;30.98;;;27.65;;
44572;SDS011;31762;45.420;10.072;2024-01-11T20:24:20;34.88;;;31.63;;
44572;SDS011;31762;45.420;10.072;2024-01-11T20:29:22;31.77;;;28.52;;
44572;SDS011;31762;45.420;10.072;2024-01-11T20:34:25;34.00;;;30.70;;
44572;SDS011;31762;45.420;10.072;2024-01-11T20:39:27;34.45;;;30.80;;
44572;SDS011;31762;45.420;10.072;2024-01-11T20:44:29;30.27;;;27.13;;
44572;SDS011;31762;45.420;10.072;2024-01-11T20:49:31;30.17;;;27.08;;
44572;SDS011;31762;45.420;10.072;2024-01-11T20:54:34;30.50;;;25.85;;
44572;SDS011;31762;45.420;10.072;2024-01-11T20:59:36;31.00;;;27.50;;
44572;SDS011;31762;45.420;10.072;2024-01-11T21:04:38;30.55;;;27.13;;
44572;SDS011;31762;45.420;10.072;2024-01-11T21:09:41;29.63;;;26.45;;
44572;SDS011;31762;45.420;10.072;2024-01-11T21:14:43;30.98;;;26.58;;
44572;SDS011;31762;45.420;10.072;2024-01-11T21:19:45;27.25;;;24.35;;
44572;SDS011;31762;45.420;10.072;2024-01-11T21:24:50;26.95;;;24.15;;
44572;SDS011;31762;45.420;10.072;2024-01-11T21:29:57;28.88;;;25.80;;
44572;SDS011;31762;45.420;10.072;2024-01-11T21:34:59;33.70;;;27.15;;
44572;SDS011;31762;45.420;10.072;2024-01-11T21:40:02;29.90;;;26.67;;
44572;SDS011;31762;45.420;10.072;2024-01-11T21:45:04;29.08;;;26.13;;
44572;SDS011;31762;45.420;10.072;2024-01-11T21:50:07;29.95;;;26.85;;
44572;SDS011;31762;45.420;10.072;2024-01-11T21:55:09;33.00;;;26.98;;
44572;SDS011;31762;45.420;10.072;2024-01-11T22:00:11;30.15;;;26.83;;
44572;SDS011;31762;45.420;10.072;2024-01-11T22:05:14;33.70;;;27.23;;
44572;SDS011;31762;45.420;10.072;2024-01-11T22:10:16;30.15;;;27.05;;
44572;SDS011;31762;45.420;10.072;2024-01-11T22:15:18;31.85;;;28.55;;
44572;SDS011;31762;45.420;10.072;2024-01-11T22:20:20;30.83;;;26.63;;
44572;SDS011;31762;45.420;10.072;2024-01-11T22:25:23;32.67;;;27.63;;
44572;SDS011;31762;45.420;10.072;2024-01-11T22:30:25;29.05;;;25.88;;
44572;SDS011;31762;45.420;10.072;2024-01-11T22:35:28;29.15;;;26.05;;
44572;SDS011;31762;45.420;10.072;2024-01-11T22:40:30;29.10;;;26.00;;
44572;SDS011;31762;45.420;10.072;2024-01-11T22:45:32;29.92;;;26.77;;
44572;SDS011;31762;45.420;10.072;2024-01-11T22:50:34;31.42;;;28.05;;
44572;SDS011;31762;45.420;10.072;2024-01-11T22:55:36;29.48;;;26.38;;
44572;SDS011;31762;45.420;10.072;2024-01-11T23:00:38;33.15;;;29.80;;
44572;SDS011;31762;45.420;10.072;2024-01-11T23:05:41;29.27;;;26.02;;
44572;SDS011;31762;45.420;10.072;2024-01-11T23:10:43;31.00;;;27.23;;
44572;SDS011;31762;45.420;10.072;2024-01-11T23:15:45;31.67;;;28.25;;
44572;SDS011;31762;45.420;10.072;2024-01-11T23:20:47;34.72;;;27.15;;
44572;SDS011;31762;45.420;10.072;2024-01-11T23:25:50;28.10;;;25.10;;
44572;SDS011;31762;45.420;10.072;2024-01-11T23:30:52;28.90;;;25.80;;
44572;SDS011;31762;45.420;10.072;2024-01-11T23:35:54;28.67;;;25.23;;
44572;SDS011;31762;45.420;10.072;2024-01-11T23:40:57;34.45;;;27.83;;
44572;SDS011;31762;45.420;10.072;2024-01-11T23:45:59;29.70;;;26.65;;
44572;SDS011;31762;45.420;10.072;2024-01-11T23:51:01;30.27;;;26.98;;
44572;SDS011;31762;45.420;10.072;2024-01-11T23:56:04;32.92;;;27.10;;
